createdAt,value
2022-08-20T00:00:08.445Z,24.83
2022-08-20T00:01:07.467Z,24.84
2022-08-20T00:02:07.757Z,24.82
2022-08-20T00:03:07.048Z,24.82
2022-08-20T00:04:07.238Z,24.85
2022-08-20T00:05:07.891Z,24.83
2022-08-20T00:06:07.437Z,24.82
2022-08-20T00:07:07.999Z,24.81
2022-08-20T00:08:07.629Z,24.79
2022-08-20T00:09:07.393Z,24.79
2022-08-20T00:10:06.953Z,24.76
2022-08-20T00:11:07.466Z,24.77
2022-08-20T00:12:07.164Z,24.75
2022-08-20T00:13:07.369Z,24.75
2022-08-20T00:14:07.529Z,24.74
2022-08-20T00:15:08.492Z,24.71
2022-08-20T00:16:07.705Z,24.69
2022-08-20T00:17:07.141Z,24.67
2022-08-20T00:18:07.614Z,24.63
2022-08-20T00:19:07.530Z,24.61
2022-08-20T00:20:06.846Z,24.58
2022-08-20T00:21:07.322Z,24.57
2022-08-20T00:22:07.403Z,24.55
2022-08-20T00:23:10.444Z,24.54
2022-08-20T00:24:07.283Z,24.55
2022-08-20T00:25:07.422Z,24.55
2022-08-20T00:26:07.899Z,24.54
2022-08-20T00:27:07.425Z,24.53
2022-08-20T00:28:08.083Z,24.50
2022-08-20T00:29:07.353Z,24.51
2022-08-20T00:30:07.868Z,24.46
2022-08-20T00:31:07.365Z,24.46
2022-08-20T00:32:07.781Z,24.46
2022-08-20T00:33:07.213Z,24.46
2022-08-20T00:34:07.458Z,24.47
2022-08-20T00:35:07.591Z,24.5
2022-08-20T00:36:07.487Z,24.46
2022-08-20T00:37:07.789Z,24.45
2022-08-20T00:38:07.174Z,24.43
2022-08-20T00:39:07.352Z,24.42
2022-08-20T00:40:08.106Z,24.39
2022-08-20T00:41:07.434Z,24.37
2022-08-20T00:42:07.486Z,24.37
2022-08-20T00:43:07.473Z,24.37
2022-08-20T00:44:07.710Z,24.35
2022-08-20T00:45:07.348Z,24.37
2022-08-20T00:46:07.654Z,24.37
2022-08-20T00:47:07.100Z,24.36
2022-08-20T00:48:07.397Z,24.37
2022-08-20T00:49:07.414Z,24.37
2022-08-20T00:50:07.589Z,24.35
2022-08-20T00:51:07.566Z,24.35
2022-08-20T00:52:07.864Z,24.35
2022-08-20T00:53:07.242Z,24.32
2022-08-20T00:54:07.652Z,24.31
2022-08-20T00:55:07.726Z,24.22
2022-08-20T00:56:06.855Z,24.22
2022-08-20T00:57:07.134Z,24.19
2022-08-20T00:58:07.786Z,24.17
2022-08-20T00:59:07.537Z,24.14
2022-08-20T01:00:08.742Z,24.12
2022-08-20T01:01:07.128Z,24.09
2022-08-20T01:02:07.857Z,24.08
2022-08-20T01:03:07.269Z,24.06
2022-08-20T01:04:07.502Z,24.04
2022-08-20T01:05:07.548Z,24.04
2022-08-20T01:06:07.680Z,24.02
2022-08-20T01:07:07.107Z,24.01
2022-08-20T01:08:07.170Z,24.02
2022-08-20T01:09:07.541Z,24.06
2022-08-20T01:10:07.927Z,24.05
2022-08-20T01:11:07.228Z,24.06
2022-08-20T01:12:07.561Z,24.05
2022-08-20T01:13:07.630Z,24.06
2022-08-20T01:14:07.613Z,24.04
2022-08-20T01:15:08.112Z,24.04
2022-08-20T01:16:07.355Z,24.04
2022-08-20T01:17:07.801Z,24.05
2022-08-20T01:18:07.095Z,24.02
2022-08-20T01:19:30.035Z,24.03
2022-08-20T01:20:07.552Z,24.05
2022-08-20T01:24:07.779Z,24.20
2022-08-20T01:25:07.330Z,24.22
2022-08-20T01:26:07.714Z,24.26
2022-08-20T01:27:08.082Z,24.28
2022-08-20T01:28:07.314Z,24.31
2022-08-20T01:29:07.663Z,24.35
2022-08-20T01:30:08.235Z,24.36
2022-08-20T01:31:07.915Z,24.38
2022-08-20T01:32:07.374Z,24.39
2022-08-20T01:33:07.426Z,24.40
2022-08-20T01:34:07.465Z,24.39
2022-08-20T01:35:07.477Z,24.39
2022-08-20T01:36:08.007Z,24.38
2022-08-20T01:37:07.210Z,24.39
2022-08-20T01:38:07.352Z,24.39
2022-08-20T01:39:07.424Z,24.39
2022-08-20T01:40:09.326Z,24.38
2022-08-20T01:41:07.421Z,24.37
2022-08-20T01:42:07.631Z,24.35
2022-08-20T01:43:08.048Z,24.37
2022-08-20T01:44:09.200Z,24.36
2022-08-20T01:45:07.445Z,24.37
2022-08-20T01:46:07.608Z,24.37
2022-08-20T01:47:06.705Z,24.37
2022-08-20T01:48:07.600Z,24.39
2022-08-20T01:49:07.061Z,24.39
2022-08-20T01:50:07.442Z,24.42
2022-08-20T01:51:07.625Z,24.43
2022-08-20T01:52:07.685Z,24.42
2022-08-20T01:53:07.036Z,24.43
2022-08-20T01:54:07.521Z,24.45
2022-08-20T01:55:07.534Z,24.46
2022-08-20T01:56:07.506Z,24.47
2022-08-20T01:57:07.597Z,24.49
2022-08-20T01:58:06.877Z,24.51
2022-08-20T01:59:06.966Z,24.51
2022-08-20T02:00:07.673Z,24.53
2022-08-20T02:01:07.168Z,24.55
2022-08-20T02:02:07.645Z,24.55
2022-08-20T02:03:07.656Z,24.55
2022-08-20T02:04:07.532Z,24.55
2022-08-20T02:05:08.118Z,24.55
2022-08-20T02:06:07.274Z,24.52
2022-08-20T02:07:07.374Z,24.52
2022-08-20T02:08:07.438Z,24.50
2022-08-20T02:09:07.403Z,24.5
2022-08-20T02:10:07.132Z,24.52
2022-08-20T02:11:07.195Z,24.51
2022-08-20T02:12:07.358Z,24.48
2022-08-20T02:13:07.682Z,24.47
2022-08-20T02:14:12.101Z,24.44
2022-08-20T02:15:07.920Z,24.43
2022-08-20T02:16:07.362Z,24.43
2022-08-20T02:17:07.844Z,24.43
2022-08-20T02:18:08.111Z,24.44
2022-08-20T02:19:07.852Z,24.44
2022-08-20T02:20:07.257Z,24.44
2022-08-20T02:21:07.799Z,24.44
2022-08-20T02:22:07.230Z,24.44
2022-08-20T02:23:07.658Z,24.44
2022-08-20T02:24:07.087Z,24.45
2022-08-20T02:25:07.141Z,24.45
2022-08-20T02:26:07.595Z,24.45
2022-08-20T02:27:07.667Z,24.45
2022-08-20T02:28:07.972Z,24.45
2022-08-20T02:29:07.486Z,24.45
2022-08-20T02:30:08.229Z,24.45
2022-08-20T02:31:07.514Z,24.46
2022-08-20T02:32:32.063Z,24.43
2022-08-20T02:33:07.459Z,24.42
2022-08-20T02:34:21.859Z,24.40
2022-08-20T02:35:07.125Z,24.40
2022-08-20T02:36:21.316Z,24.40
2022-08-20T02:37:07.616Z,24.41
2022-08-20T02:38:06.911Z,24.42
2022-08-20T02:39:06.997Z,24.42
2022-08-20T02:40:07.400Z,24.44
2022-08-20T02:41:07.873Z,24.47
2022-08-20T02:42:07.023Z,24.47
2022-08-20T02:43:07.284Z,24.48
2022-08-20T02:44:21.498Z,24.51
2022-08-20T02:45:08.137Z,24.51
2022-08-20T02:46:07.726Z,24.54
2022-08-20T02:47:06.887Z,24.56
2022-08-20T02:48:07.257Z,24.56
2022-08-20T02:49:07.616Z,24.57
2022-08-20T02:50:07.934Z,24.59
2022-08-20T02:51:07.587Z,24.60
2022-08-20T02:52:07.616Z,24.63
2022-08-20T02:53:07.360Z,24.62
2022-08-20T02:54:07.609Z,24.61
2022-08-20T02:55:07.961Z,24.61
2022-08-20T02:56:07.087Z,24.61
2022-08-20T02:57:07.704Z,24.62
2022-08-20T02:58:07.356Z,24.64
2022-08-20T02:59:07.413Z,24.63
2022-08-20T03:00:08.460Z,24.65
2022-08-20T03:01:07.428Z,24.65
2022-08-20T03:02:07.334Z,24.65
2022-08-20T03:03:07.780Z,24.67
2022-08-20T03:04:07.179Z,24.66
2022-08-20T03:05:08.131Z,24.67
2022-08-20T03:06:07.552Z,24.68
2022-08-20T03:07:07.650Z,24.68
2022-08-20T03:08:07.045Z,24.69
2022-08-20T03:09:07.861Z,24.69
2022-08-20T03:10:07.296Z,24.71
2022-08-20T03:11:07.783Z,24.72
2022-08-20T03:12:07.264Z,24.73
2022-08-20T03:13:07.730Z,24.73
2022-08-20T03:14:07.226Z,24.73
2022-08-20T03:15:07.970Z,24.69
2022-08-20T03:16:07.295Z,24.67
2022-08-20T03:17:07.546Z,24.65
2022-08-20T03:18:07.023Z,24.62
2022-08-20T03:19:07.105Z,24.56
2022-08-20T03:20:07.479Z,24.53
2022-08-20T03:21:07.524Z,24.51
2022-08-20T03:22:07.394Z,24.51
2022-08-20T03:23:07.627Z,24.51
2022-08-20T03:24:07.821Z,24.48
2022-08-20T03:25:07.307Z,24.50
2022-08-20T03:26:08.003Z,24.53
2022-08-20T03:27:07.155Z,24.52
2022-08-20T03:28:07.620Z,24.52
2022-08-20T03:29:07.770Z,24.54
2022-08-20T03:30:07.668Z,24.55
2022-08-20T03:31:07.096Z,24.56
2022-08-20T03:32:07.939Z,24.55
2022-08-20T03:33:07.629Z,24.57
2022-08-20T03:34:07.970Z,24.56
2022-08-20T03:35:07.309Z,24.59
2022-08-20T03:36:07.681Z,24.60
2022-08-20T03:37:07.859Z,24.57
2022-08-20T03:38:07.370Z,24.60
2022-08-20T03:39:07.605Z,24.60
2022-08-20T03:40:08.338Z,24.61
2022-08-20T03:41:07.708Z,24.61
2022-08-20T03:42:07.793Z,24.64
2022-08-20T03:43:07.255Z,24.63
2022-08-20T03:44:07.699Z,24.62
2022-08-20T03:45:08.173Z,24.63
2022-08-20T03:46:07.588Z,24.63
2022-08-20T03:47:07.654Z,24.65
2022-08-20T03:48:07.284Z,24.64
2022-08-20T03:49:07.500Z,24.66
2022-08-20T03:50:07.994Z,24.65
2022-08-20T03:51:07.364Z,24.66
2022-08-20T03:52:07.767Z,24.65
2022-08-20T03:53:06.996Z,24.64
2022-08-20T03:54:07.243Z,24.67
2022-08-20T03:55:07.525Z,24.64
2022-08-20T03:56:07.502Z,24.63
2022-08-20T03:57:12.494Z,24.62
2022-08-20T03:58:07.485Z,24.61
2022-08-20T03:59:07.607Z,24.60
2022-08-20T04:00:08.158Z,24.56
2022-08-20T04:01:07.690Z,24.59
2022-08-20T04:02:08.040Z,24.57
2022-08-20T04:03:07.333Z,24.59
2022-08-20T04:04:12.391Z,24.59
2022-08-20T04:05:07.318Z,24.59
2022-08-20T04:06:07.615Z,24.59
2022-08-20T04:07:07.734Z,24.58
2022-08-20T04:08:07.208Z,24.59
2022-08-20T04:09:07.666Z,24.57
2022-08-20T04:10:07.118Z,24.54
2022-08-20T04:11:07.523Z,24.54
2022-08-20T04:12:07.642Z,24.51
2022-08-20T04:13:06.939Z,24.50
2022-08-20T04:14:07.432Z,24.51
2022-08-20T04:15:07.524Z,24.48
2022-08-20T04:16:07.558Z,24.48
2022-08-20T04:17:07.723Z,24.47
2022-08-20T04:18:07.176Z,24.5
2022-08-20T04:19:07.485Z,24.47
2022-08-20T04:20:07.799Z,24.48
2022-08-20T04:21:07.428Z,24.49
2022-08-20T04:22:07.722Z,24.49
2022-08-20T04:23:07.388Z,24.52
2022-08-20T04:24:07.645Z,24.52
2022-08-20T04:25:07.803Z,24.55
2022-08-20T04:26:06.916Z,24.56
2022-08-20T04:27:07.223Z,24.57
2022-08-20T04:28:07.444Z,24.57
2022-08-20T04:29:07.442Z,24.58
2022-08-20T04:30:07.648Z,24.59
2022-08-20T04:31:07.090Z,24.57
2022-08-20T04:32:07.321Z,24.56
2022-08-20T04:33:07.014Z,24.58
2022-08-20T04:34:07.141Z,24.56
2022-08-20T04:35:07.464Z,24.52
2022-08-20T04:36:07.535Z,24.51
2022-08-20T04:37:16.791Z,24.48
2022-08-20T04:38:07.429Z,24.46
2022-08-20T04:39:07.635Z,24.45
2022-08-20T04:40:07.842Z,24.44
2022-08-20T04:41:07.070Z,24.43
2022-08-20T04:42:07.182Z,24.45
2022-08-20T04:43:07.443Z,24.44
2022-08-20T04:44:07.778Z,24.43
2022-08-20T04:45:07.424Z,24.43
2022-08-20T04:46:07.073Z,24.43
2022-08-20T04:47:07.636Z,24.40
2022-08-20T04:48:11.678Z,24.39
2022-08-20T04:49:07.729Z,24.40
2022-08-20T04:50:07.862Z,24.38
2022-08-20T04:51:07.024Z,24.42
2022-08-20T04:52:07.558Z,24.40
2022-08-20T04:53:07.177Z,24.40
2022-08-20T04:54:07.483Z,24.43
2022-08-20T04:55:07.693Z,24.43
2022-08-20T04:56:07.135Z,24.40
2022-08-20T04:57:07.384Z,24.37
2022-08-20T04:58:07.815Z,24.34
2022-08-20T04:59:07.548Z,24.26
2022-08-20T05:00:07.862Z,24.23
2022-08-20T05:01:07.099Z,24.21
2022-08-20T05:02:07.285Z,24.16
2022-08-20T05:03:07.716Z,24.10
2022-08-20T05:04:07.338Z,24.04
2022-08-20T05:05:07.674Z,23.98
2022-08-20T05:06:07.516Z,23.92
2022-08-20T05:07:07.434Z,23.83
2022-08-20T05:08:07.464Z,23.74
2022-08-20T05:09:07.525Z,23.63
2022-08-20T05:10:07.625Z,23.54
2022-08-20T05:11:33.854Z,23.50
2022-08-20T05:12:07.471Z,23.43
2022-08-20T05:13:07.645Z,23.39
2022-08-20T05:14:08.048Z,23.36
2022-08-20T05:15:07.958Z,23.34
2022-08-20T05:16:07.240Z,23.31
2022-08-20T05:17:07.558Z,23.24
2022-08-20T05:18:07.696Z,23.24
2022-08-20T05:19:07.816Z,23.18
2022-08-20T05:20:08.124Z,23.17
2022-08-20T05:21:07.550Z,23.13
2022-08-20T05:22:07.738Z,23.09
2022-08-20T05:23:07.808Z,23.04
2022-08-20T05:24:08.098Z,23.02
2022-08-20T05:25:07.382Z,23.01
2022-08-20T05:26:07.515Z,23.04
2022-08-20T05:27:07.413Z,23.05
2022-08-20T05:28:07.033Z,23.03
2022-08-20T05:29:07.313Z,23.04
2022-08-20T05:30:07.570Z,23.04
2022-08-20T05:31:07.779Z,23.07
2022-08-20T05:32:07.373Z,23.04
2022-08-20T05:33:07.935Z,23.03
2022-08-20T05:34:07.004Z,23.02
2022-08-20T05:35:07.671Z,23
2022-08-20T05:36:07.146Z,22.98
2022-08-20T05:37:07.752Z,22.96
2022-08-20T05:38:07.857Z,22.97
2022-08-20T05:39:07.431Z,22.94
2022-08-20T05:40:07.889Z,22.91
2022-08-20T05:41:07.351Z,22.90
2022-08-20T05:42:07.596Z,22.92
2022-08-20T05:43:07.715Z,22.91
2022-08-20T05:44:07.809Z,22.91
2022-08-20T05:45:11.302Z,22.92
2022-08-20T05:46:07.083Z,22.89
2022-08-20T05:47:07.647Z,22.87
2022-08-20T05:48:07.905Z,22.82
2022-08-20T05:49:07.563Z,22.82
2022-08-20T05:50:07.771Z,22.79
2022-08-20T05:51:07.304Z,22.79
2022-08-20T05:52:06.945Z,22.81
2022-08-20T05:53:07.433Z,22.80
2022-08-20T05:54:07.819Z,22.81
2022-08-20T05:55:07.078Z,22.81
2022-08-20T05:56:07.516Z,22.81
2022-08-20T05:57:07.832Z,22.84
2022-08-20T05:58:07.381Z,22.87
2022-08-20T05:59:07.434Z,22.89
2022-08-20T06:00:08.653Z,22.92
2022-08-20T06:01:07.740Z,22.93
2022-08-20T06:02:07.318Z,22.95
2022-08-20T06:03:07.909Z,23
2022-08-20T06:04:07.226Z,23.04
2022-08-20T06:05:07.802Z,23.05
2022-08-20T06:06:18.073Z,23.09
2022-08-20T06:07:07.671Z,23.12
2022-08-20T06:08:08.178Z,23.16
2022-08-20T06:09:07.596Z,23.18
2022-08-20T06:10:08.093Z,23.19
2022-08-20T06:11:07.414Z,23.20
2022-08-20T06:12:07.526Z,23.19
2022-08-20T06:13:07.105Z,23.15
2022-08-20T06:14:07.425Z,23.11
2022-08-20T06:15:08.041Z,23.09
2022-08-20T06:16:07.770Z,23.07
2022-08-20T06:17:07.780Z,23.06
2022-08-20T06:18:16.608Z,23.02
2022-08-20T06:19:11.437Z,22.97
2022-08-20T06:20:08.141Z,22.97
2022-08-20T06:21:07.627Z,22.96
2022-08-20T06:22:17.858Z,22.96
2022-08-20T06:23:07.531Z,22.95
2022-08-20T06:24:07.718Z,22.90
2022-08-20T06:25:07.431Z,22.82
2022-08-20T06:26:07.620Z,22.78
2022-08-20T06:27:08.159Z,22.78
2022-08-20T06:28:07.575Z,22.79
2022-08-20T06:29:07.267Z,22.79
2022-08-20T06:30:07.963Z,22.75
2022-08-20T06:31:07.573Z,22.73
2022-08-20T06:32:07.938Z,22.69
2022-08-20T06:33:07.484Z,22.63
2022-08-20T06:34:07.175Z,22.57
2022-08-20T06:35:07.882Z,22.53
2022-08-20T06:36:07.240Z,22.51
2022-08-20T06:37:07.565Z,22.49
2022-08-20T06:38:07.642Z,22.52
2022-08-20T06:39:07.918Z,22.56
2022-08-20T06:40:07.651Z,22.56
2022-08-20T06:41:07.357Z,22.60
2022-08-20T06:42:07.634Z,22.65
2022-08-20T06:43:07.243Z,22.67
2022-08-20T06:44:07.614Z,22.75
2022-08-20T06:45:08.326Z,22.71
2022-08-20T06:46:07.645Z,22.73
2022-08-20T06:47:08.011Z,22.76
2022-08-20T06:48:08.006Z,22.78
2022-08-20T06:49:07.595Z,22.78
2022-08-20T06:50:08.104Z,22.83
2022-08-20T06:51:07.871Z,22.85
2022-08-20T06:52:06.972Z,22.89
2022-08-20T06:53:07.991Z,22.92
2022-08-20T06:54:07.188Z,22.93
2022-08-20T06:55:07.734Z,22.95
2022-08-20T06:56:07.420Z,22.96
2022-08-20T06:57:07.723Z,23.01
2022-08-20T06:58:07.352Z,23.02
2022-08-20T06:59:07.502Z,23.02
2022-08-20T07:00:08.672Z,23.04
2022-08-20T07:01:09.818Z,23.04
2022-08-20T07:02:07.477Z,23.05
2022-08-20T07:03:08.093Z,23.04
2022-08-20T07:04:07.352Z,23.04
2022-08-20T07:05:07.648Z,23.03
2022-08-20T07:06:07.946Z,23.04
2022-08-20T07:07:07.116Z,23.07
2022-08-20T07:08:07.461Z,23.13
2022-08-20T07:09:07.739Z,23.18
2022-08-20T07:10:07.296Z,23.19
2022-08-20T07:11:07.439Z,23.22
2022-08-20T07:12:07.648Z,23.24
2022-08-20T07:13:07.111Z,23.23
2022-08-20T07:14:07.580Z,23.23
2022-08-20T07:15:07.487Z,23.27
2022-08-20T07:16:15.014Z,23.26
2022-08-20T07:17:09.597Z,23.29
2022-08-20T07:18:07.780Z,23.30
2022-08-20T07:19:07.325Z,23.29
2022-08-20T07:20:08.081Z,23.33
2022-08-20T07:21:07.400Z,23.35
2022-08-20T07:22:07.561Z,23.37
2022-08-20T07:23:07.721Z,23.42
2022-08-20T07:24:07.164Z,23.47
2022-08-20T07:25:07.723Z,23.48
2022-08-20T07:26:07.345Z,23.45
2022-08-20T07:27:07.723Z,23.44
2022-08-20T07:28:07.361Z,23.45
2022-08-20T07:29:07.933Z,23.43
2022-08-20T07:30:12.214Z,23.5
2022-08-20T07:31:13.387Z,23.46
2022-08-20T07:32:07.536Z,23.43
2022-08-20T07:33:07.124Z,23.38
2022-08-20T07:34:07.303Z,23.36
2022-08-20T07:35:07.739Z,23.32
2022-08-20T07:36:07.219Z,23.31
2022-08-20T07:37:07.601Z,23.31
2022-08-20T07:38:07.329Z,23.28
2022-08-20T07:39:07.622Z,23.27
2022-08-20T07:40:07.901Z,23.21
2022-08-20T07:41:07.285Z,23.19
2022-08-20T07:42:07.730Z,23.20
2022-08-20T07:43:07.095Z,23.15
2022-08-20T07:44:07.318Z,23.15
2022-08-20T07:45:08.242Z,23.13
2022-08-20T07:46:08.590Z,23.13
2022-08-20T07:47:06.965Z,23.15
2022-08-20T07:48:07.546Z,23.19
2022-08-20T07:49:07.096Z,23.23
2022-08-20T07:50:07.480Z,23.29
2022-08-20T07:51:07.843Z,23.34
2022-08-20T07:52:07.426Z,23.37
2022-08-20T07:53:08.062Z,23.42
2022-08-20T07:54:07.772Z,23.45
2022-08-20T07:55:07.569Z,23.50
2022-08-20T07:56:07.676Z,23.53
2022-08-20T07:57:07.489Z,23.57
2022-08-20T07:58:07.073Z,23.57
2022-08-20T07:59:07.428Z,23.57
2022-08-20T08:00:08.872Z,23.55
2022-08-20T08:01:07.932Z,23.53
2022-08-20T08:02:07.625Z,23.54
2022-08-20T08:03:06.959Z,23.55
2022-08-20T08:04:07.240Z,23.59
2022-08-20T08:05:07.674Z,23.64
2022-08-20T08:06:07.179Z,23.65
2022-08-20T08:07:07.573Z,23.64
2022-08-20T08:08:07.668Z,23.62
2022-08-20T08:09:07.092Z,23.63
2022-08-20T08:10:07.629Z,23.65
2022-08-20T08:11:07.321Z,23.65
2022-08-20T08:12:07.909Z,23.66
2022-08-20T08:13:07.615Z,23.69
2022-08-20T08:14:07.960Z,23.68
2022-08-20T08:15:07.486Z,23.70
2022-08-20T08:16:07.854Z,23.72
2022-08-20T08:17:07.448Z,23.77
2022-08-20T08:18:08.155Z,23.82
2022-08-20T08:19:07.292Z,23.87
2022-08-20T08:20:07.582Z,23.94
2022-08-20T08:21:07.865Z,23.98
2022-08-20T08:22:07.159Z,24.06
2022-08-20T08:23:07.445Z,24.07
2022-08-20T08:24:06.934Z,24.10
2022-08-20T08:25:07.612Z,24.09
2022-08-20T08:26:06.910Z,24.05
2022-08-20T08:27:07.309Z,24.00
2022-08-20T08:28:07.718Z,23.98
2022-08-20T08:29:07.179Z,23.97
2022-08-20T08:30:08.020Z,23.97
2022-08-20T08:31:07.388Z,23.98
2022-08-20T08:32:07.757Z,23.98
2022-08-20T08:33:07.300Z,24.03
2022-08-20T08:34:07.687Z,24.06
2022-08-20T08:35:07.153Z,24.12
2022-08-20T08:36:07.425Z,24.20
2022-08-20T08:37:07.808Z,24.20
2022-08-20T08:38:07.374Z,24.18
2022-08-20T08:39:08.185Z,24.17
2022-08-20T08:40:07.643Z,24.09
2022-08-20T08:41:07.420Z,24.07
2022-08-20T08:42:07.918Z,24.10
2022-08-20T08:43:07.939Z,24.10
2022-08-20T08:44:07.566Z,24.09
2022-08-20T08:45:07.284Z,24.09
2022-08-20T08:46:07.131Z,24.10
2022-08-20T08:47:07.624Z,24.14
2022-08-20T08:48:07.336Z,24.17
2022-08-20T08:49:06.978Z,24.15
2022-08-20T08:50:07.361Z,24.17
2022-08-20T08:51:07.777Z,24.16
2022-08-20T08:52:07.461Z,24.16
2022-08-20T08:53:07.235Z,24.20
2022-08-20T08:54:07.372Z,24.23
2022-08-20T08:55:08.091Z,24.27
2022-08-20T08:56:08.070Z,24.29
2022-08-20T08:57:07.672Z,24.28
2022-08-20T08:58:16.717Z,24.29
2022-08-20T08:59:07.760Z,24.26
2022-08-20T09:00:07.726Z,24.25
2022-08-20T09:01:13.706Z,24.25
2022-08-20T09:02:07.874Z,24.28
2022-08-20T09:03:07.606Z,24.30
2022-08-20T09:04:07.869Z,24.29
2022-08-20T09:05:07.654Z,24.27
2022-08-20T09:06:07.419Z,24.24
2022-08-20T09:07:07.614Z,24.23
2022-08-20T09:08:07.131Z,24.22
2022-08-20T09:09:08.039Z,24.25
2022-08-20T09:10:07.706Z,24.22
2022-08-20T09:11:07.403Z,24.23
2022-08-20T09:12:07.736Z,24.23
2022-08-20T09:13:07.020Z,24.24
2022-08-20T09:14:07.546Z,24.25
2022-08-20T09:15:08.397Z,24.27
2022-08-20T09:16:07.177Z,24.30
2022-08-20T09:17:07.702Z,24.29
2022-08-20T09:18:07.294Z,24.30
2022-08-20T09:19:07.224Z,24.29
2022-08-20T09:20:08.061Z,24.29
2022-08-20T09:21:07.720Z,24.29
2022-08-20T09:22:07.690Z,24.36
2022-08-20T09:23:07.159Z,24.43
2022-08-20T09:24:07.255Z,24.5
2022-08-20T09:25:07.834Z,24.55
2022-08-20T09:26:07.215Z,24.60
2022-08-20T09:27:07.766Z,24.60
2022-08-20T09:28:07.584Z,24.57
2022-08-20T09:29:07.338Z,24.59
2022-08-20T09:30:08.271Z,24.61
2022-08-20T09:31:07.146Z,24.65
2022-08-20T09:32:07.825Z,24.67
2022-08-20T09:33:07.808Z,24.68
2022-08-20T09:34:07.430Z,24.70
2022-08-20T09:35:09.472Z,24.72
2022-08-20T09:36:31.346Z,24.75
2022-08-20T09:37:07.288Z,24.79
2022-08-20T09:38:07.782Z,24.85
2022-08-20T09:39:07.498Z,24.90
2022-08-20T09:40:08.460Z,24.97
2022-08-20T09:41:07.164Z,25.00
2022-08-20T09:42:07.396Z,25.04
2022-08-20T09:43:15.722Z,25.08
2022-08-20T09:44:07.241Z,25.09
2022-08-20T09:45:10.954Z,25.13
2022-08-20T09:46:07.160Z,25.15
2022-08-20T09:47:07.952Z,25.17
2022-08-20T09:48:10.466Z,25.22
2022-08-20T09:49:10.503Z,25.28
2022-08-20T09:50:07.378Z,25.31
2022-08-20T09:51:08.094Z,25.37
2022-08-20T09:52:07.572Z,25.41
2022-08-20T09:53:07.544Z,25.45
2022-08-20T09:54:07.915Z,25.47
2022-08-20T09:55:07.500Z,25.48
2022-08-20T09:56:07.915Z,25.53
2022-08-20T09:57:07.068Z,25.57
2022-08-20T09:58:07.378Z,25.63
2022-08-20T09:59:07.687Z,25.69
2022-08-20T10:00:07.912Z,25.71
2022-08-20T10:01:07.704Z,25.78
2022-08-20T10:02:07.611Z,25.85
2022-08-20T10:03:07.664Z,25.86
2022-08-20T10:04:07.850Z,25.79
2022-08-20T10:05:07.717Z,25.74
2022-08-20T10:06:07.240Z,25.70
2022-08-20T10:07:07.299Z,25.66
2022-08-20T10:08:07.507Z,25.64
2022-08-20T10:09:07.792Z,25.64
2022-08-20T10:10:07.078Z,25.68
2022-08-20T10:11:07.355Z,25.70
2022-08-20T10:12:07.506Z,25.67
2022-08-20T10:13:07.665Z,25.64
2022-08-20T10:14:07.311Z,25.67
2022-08-20T10:15:07.611Z,25.72
2022-08-20T10:16:07.225Z,25.76
2022-08-20T10:17:07.858Z,25.76
2022-08-20T10:18:07.314Z,25.74
2022-08-20T10:19:07.090Z,25.73
2022-08-20T10:20:07.706Z,25.70
2022-08-20T10:21:07.362Z,25.62
2022-08-20T10:22:07.806Z,25.57
2022-08-20T10:23:07.170Z,25.56
2022-08-20T10:24:07.747Z,25.58
2022-08-20T10:25:07.327Z,25.62
2022-08-20T10:26:07.810Z,25.70
2022-08-20T10:27:07.309Z,25.77
2022-08-20T10:28:07.544Z,25.84
2022-08-20T10:29:07.904Z,25.89
2022-08-20T10:30:07.654Z,25.94
2022-08-20T10:31:08.047Z,25.95
2022-08-20T10:32:07.727Z,25.98
2022-08-20T10:33:07.522Z,26
2022-08-20T10:34:07.806Z,26.02
2022-08-20T10:35:07.549Z,26.05
2022-08-20T10:36:07.973Z,26.06
2022-08-20T10:37:07.529Z,26.10
2022-08-20T10:38:07.898Z,26.13
2022-08-20T10:39:07.369Z,26.14
2022-08-20T10:40:07.638Z,26.16
2022-08-20T10:41:07.168Z,26.19
2022-08-20T10:42:07.347Z,26.20
2022-08-20T10:43:07.663Z,26.24
2022-08-20T10:44:07.331Z,26.21
2022-08-20T10:45:07.884Z,26.25
2022-08-20T10:46:07.401Z,26.26
2022-08-20T10:47:07.798Z,26.20
2022-08-20T10:48:07.310Z,26.15
2022-08-20T10:49:07.470Z,26.09
2022-08-20T10:50:07.565Z,26.10
2022-08-20T10:51:07.932Z,26.11
2022-08-20T10:52:07.466Z,26.10
2022-08-20T10:53:07.432Z,26.09
2022-08-20T10:54:08.212Z,26.07
2022-08-20T10:55:07.845Z,26.05
2022-08-20T10:56:07.327Z,26.06
2022-08-20T10:57:07.304Z,26.02
2022-08-20T10:58:07.663Z,25.98
2022-08-20T10:59:07.968Z,25.99
2022-08-20T11:00:08.002Z,26.01
2022-08-20T11:01:07.372Z,26.04
2022-08-20T11:02:07.924Z,26.09
2022-08-20T11:03:08.162Z,26.09
2022-08-20T11:04:07.417Z,26.10
2022-08-20T11:05:07.167Z,26.10
2022-08-20T11:06:07.862Z,26.14
2022-08-20T11:07:07.465Z,26.10
2022-08-20T11:08:07.631Z,26.05
2022-08-20T11:09:09.693Z,26.06
2022-08-20T11:10:11.765Z,26.06
2022-08-20T11:11:07.533Z,26.06
2022-08-20T11:12:07.417Z,26.12
2022-08-20T11:14:07.946Z,26.17
2022-08-20T11:15:09.395Z,26.23
2022-08-20T11:16:07.417Z,26.30
2022-08-20T11:17:07.859Z,26.37
2022-08-20T11:18:07.570Z,26.38
2022-08-20T11:19:07.799Z,26.36
2022-08-20T11:20:07.270Z,26.31
2022-08-20T11:21:07.670Z,26.28
2022-08-20T11:22:07.234Z,26.31
2022-08-20T11:23:07.943Z,26.34
2022-08-20T11:24:07.474Z,26.31
2022-08-20T11:25:07.681Z,26.34
2022-08-20T11:26:07.435Z,26.36
2022-08-20T11:27:08.013Z,26.38
2022-08-20T11:28:07.352Z,26.42
2022-08-20T11:29:08.022Z,26.47
2022-08-20T11:30:07.986Z,26.5
2022-08-20T11:31:08.039Z,26.63
2022-08-20T11:32:07.474Z,26.64
2022-08-20T11:33:07.297Z,26.63
2022-08-20T11:34:12.507Z,26.68
2022-08-20T11:35:38.240Z,26.68
2022-08-20T11:36:07.724Z,26.69
2022-08-20T11:37:07.334Z,26.70
2022-08-20T11:38:07.591Z,26.72
2022-08-20T11:39:07.586Z,26.71
2022-08-20T11:40:07.962Z,26.67
2022-08-20T11:41:07.495Z,26.60
2022-08-20T11:42:07.977Z,26.54
2022-08-20T11:43:16.242Z,26.53
2022-08-20T11:44:20.790Z,26.52
2022-08-20T11:45:07.686Z,26.48
2022-08-20T11:46:07.732Z,26.48
2022-08-20T11:47:07.254Z,26.5
2022-08-20T11:48:08.168Z,26.53
2022-08-20T11:49:07.683Z,26.56
2022-08-20T11:50:07.309Z,26.60
2022-08-20T11:51:07.763Z,26.61
2022-08-20T11:52:07.018Z,26.64
2022-08-20T11:53:08.020Z,26.70
2022-08-20T11:54:07.471Z,26.72
2022-08-20T11:55:07.495Z,26.71
2022-08-20T11:56:07.820Z,26.75
2022-08-20T11:57:07.630Z,26.73
2022-08-20T11:58:07.736Z,26.76
2022-08-20T11:59:07.406Z,26.84
2022-08-20T12:00:08.435Z,26.93
2022-08-20T12:01:07.425Z,26.98
2022-08-20T12:02:12.795Z,27.00
2022-08-20T12:03:09.221Z,27.05
2022-08-20T12:04:07.372Z,27.10
2022-08-20T12:05:07.768Z,27.10
2022-08-20T12:06:07.303Z,27.07
2022-08-20T12:07:07.975Z,27.01
2022-08-20T12:08:07.361Z,26.95
2022-08-20T12:09:07.975Z,26.94
2022-08-20T12:10:07.548Z,26.87
2022-08-20T12:11:07.688Z,26.87
2022-08-20T12:12:07.226Z,26.86
2022-08-20T12:13:07.547Z,26.89
2022-08-20T12:14:07.460Z,26.92
2022-08-20T12:15:07.934Z,26.95
2022-08-20T12:16:07.677Z,26.97
2022-08-20T12:17:08.101Z,26.96
2022-08-20T12:18:07.883Z,27.01
2022-08-20T12:19:07.611Z,26.99
2022-08-20T12:20:08.009Z,26.98
2022-08-20T12:21:07.573Z,26.93
2022-08-20T12:22:24.698Z,26.89
2022-08-20T12:23:08.180Z,26.88
2022-08-20T12:24:21.656Z,26.89
2022-08-20T12:25:07.319Z,26.89
2022-08-20T12:26:07.787Z,26.91
2022-08-20T12:27:07.402Z,26.90
2022-08-20T12:28:07.664Z,26.89
2022-08-20T12:29:07.453Z,26.87
2022-08-20T12:30:08.142Z,26.86
2022-08-20T12:31:08.671Z,26.86
2022-08-20T12:32:07.415Z,26.82
2022-08-20T12:33:08.035Z,26.82
2022-08-20T12:34:07.535Z,26.77
2022-08-20T12:35:07.845Z,26.78
2022-08-20T12:36:07.256Z,26.75
2022-08-20T12:37:07.840Z,26.75
2022-08-20T12:38:07.899Z,26.77
2022-08-20T12:39:07.483Z,26.71
2022-08-20T12:40:07.485Z,26.62
2022-08-20T12:41:07.211Z,26.45
2022-08-20T12:42:07.413Z,26.35
2022-08-20T12:43:07.649Z,26.30
2022-08-20T12:44:08.056Z,26.31
2022-08-20T12:45:07.510Z,26.35
2022-08-20T12:46:07.217Z,26.45
2022-08-20T12:47:07.628Z,26.51
2022-08-20T12:48:07.195Z,26.54
2022-08-20T12:49:07.595Z,26.54
2022-08-20T12:50:08.348Z,26.56
2022-08-20T12:51:07.778Z,26.58
2022-08-20T12:52:08.306Z,26.63
2022-08-20T12:53:07.556Z,26.75
2022-08-20T12:54:07.577Z,26.90
2022-08-20T12:55:07.511Z,26.92
2022-08-20T12:56:07.946Z,26.97
2022-08-20T12:57:08.172Z,26.99